createdAt,value
2018-06-19T00:00:45.262Z,75.92
2018-06-19T00:01:45.274Z,75.92
2018-06-19T00:02:45.270Z,75.63
2018-06-19T00:03:45.268Z,75.63
2018-06-19T00:04:45.272Z,75.54
2018-06-19T00:05:45.279Z,75.73
2018-06-19T00:06:45.289Z,75.89
2018-06-19T00:07:45.276Z,75.89
2018-06-19T00:08:45.276Z,76.56
2018-06-19T00:09:45.281Z,76.75
2018-06-19T00:10:45.282Z,76.50
2018-06-19T00:11:45.288Z,76.88
2018-06-19T00:12:45.296Z,76.46
2018-06-19T00:13:45.289Z,76.27
2018-06-19T00:14:45.289Z,76.17
2018-06-19T00:15:45.294Z,76.46
2018-06-19T00:16:45.295Z,76.37
2018-06-19T00:17:45.296Z,76.75
2018-06-19T00:18:45.297Z,76.84
2018-06-19T00:19:45.299Z,76.94
2018-06-19T00:20:45.298Z,77.23
2018-06-19T00:21:45.300Z,77.04
2018-06-19T00:22:45.301Z,77.13
2018-06-19T00:23:45.305Z,77.13
2018-06-19T00:24:45.316Z,77.13
2018-06-19T00:25:45.308Z,77.13
2018-06-19T00:26:45.309Z,77.23
2018-06-19T00:27:45.310Z,77.33
2018-06-19T00:28:45.318Z,77.13
2018-06-19T00:29:45.313Z,77.23
2018-06-19T00:30:45.315Z,77.23
2018-06-19T00:31:45.349Z,77.13
2018-06-19T00:32:45.326Z,77.23
2018-06-19T00:33:45.323Z,77.33
2018-06-19T00:34:45.328Z,76.94
2018-06-19T00:35:45.323Z,77.33
2018-06-19T00:36:45.324Z,77.23
2018-06-19T00:37:45.328Z,76.94
2018-06-19T00:38:45.341Z,76.94
2018-06-19T00:39:45.336Z,77.23
2018-06-19T00:40:45.332Z,77.42
2018-06-19T00:41:45.337Z,76.65
2018-06-19T00:42:45.349Z,77.23
2018-06-19T00:43:45.336Z,77.13
2018-06-19T00:44:45.336Z,77.23
2018-06-19T00:45:45.340Z,77.04
2018-06-19T00:46:45.340Z,76.56
2018-06-19T00:47:45.343Z,77.23
2018-06-19T00:48:45.344Z,77.13
2018-06-19T00:49:45.347Z,77.04
2018-06-19T00:50:45.348Z,77.23
2018-06-19T00:51:45.350Z,76.94
2018-06-19T00:52:45.350Z,76.94
2018-06-19T00:53:45.351Z,77.04
2018-06-19T00:54:45.357Z,77.33
2018-06-19T00:55:45.355Z,77.71
2018-06-19T00:56:45.359Z,77.61
2018-06-19T00:57:45.358Z,78.00
2018-06-19T00:58:45.359Z,78.05
2018-06-19T00:59:45.365Z,78.00
2018-06-19T01:00:45.363Z,78.09
2018-06-19T01:01:45.371Z,78.82
2018-06-19T01:02:45.366Z,78.53
2018-06-19T01:03:45.367Z,78.44
2018-06-19T01:04:45.368Z,78.63
2018-06-19T01:05:45.372Z,78.44
2018-06-19T01:06:45.371Z,79.01
2018-06-19T01:07:45.373Z,78.63
2018-06-19T01:08:45.376Z,78.92
2018-06-19T01:09:45.377Z,79.21
2018-06-19T01:10:45.378Z,79.01
2018-06-19T01:11:45.380Z,79.01
2018-06-19T01:12:45.380Z,78.82
2018-06-19T01:13:45.384Z,79.39
2018-06-19T01:14:45.385Z,79.59
2018-06-19T01:15:45.385Z,79.30
2018-06-19T01:16:45.396Z,79.39
2018-06-19T01:17:45.388Z,79.49
2018-06-19T01:18:45.389Z,79.97
2018-06-19T01:19:45.390Z,79.78
2018-06-19T01:20:45.391Z,79.59
2018-06-19T01:21:45.392Z,79.39
2018-06-19T01:22:45.394Z,79.68
2018-06-19T01:23:45.397Z,79.39
2018-06-19T01:24:45.398Z,79.39
2018-06-19T01:25:45.398Z,79.88
2018-06-19T01:26:45.402Z,80.16
2018-06-19T01:27:45.403Z,79.78
2018-06-19T01:28:46.174Z,79.68
2018-06-19T01:29:45.405Z,79.49
2018-06-19T01:30:45.405Z,79.59
2018-06-19T01:31:45.409Z,79.49
2018-06-19T01:32:45.413Z,79.97
2018-06-19T01:33:45.412Z,79.88
2018-06-19T01:34:45.416Z,79.59
2018-06-19T01:35:45.423Z,79.97
2018-06-19T01:36:45.415Z,79.39
2018-06-19T01:37:45.414Z,79.78
2018-06-19T01:38:45.420Z,79.68
2018-06-19T01:39:45.417Z,79.49
2018-06-19T01:40:45.418Z,79.30
2018-06-19T01:41:45.420Z,79.78
2018-06-19T01:42:45.424Z,79.49
2018-06-19T01:43:45.425Z,79.21
2018-06-19T01:44:45.423Z,79.39
2018-06-19T01:45:45.455Z,79.88
2018-06-19T01:46:45.430Z,79.39
2018-06-19T01:47:45.432Z,80.07
2018-06-19T01:48:45.432Z,80.07
2018-06-19T01:49:45.429Z,79.78
2018-06-19T01:50:45.433Z,79.88
2018-06-19T01:51:45.433Z,79.97
2018-06-19T01:52:45.435Z,80.07
2018-06-19T01:53:45.435Z,79.59
2018-06-19T01:54:45.438Z,79.68
2018-06-19T01:55:45.440Z,79.97
2018-06-19T01:56:45.440Z,79.88
2018-06-19T01:57:45.440Z,80.26
2018-06-19T01:58:45.442Z,79.97
2018-06-19T01:59:45.443Z,79.97
2018-06-19T02:00:45.443Z,79.78
2018-06-19T02:01:45.445Z,79.78
2018-06-19T02:02:45.449Z,79.97
2018-06-19T02:03:45.447Z,80.93
2018-06-19T02:04:45.449Z,80.35
2018-06-19T02:05:45.450Z,80.45
2018-06-19T02:06:45.451Z,80.64
2018-06-19T02:07:45.456Z,79.88
2018-06-19T02:08:45.458Z,79.97
2018-06-19T02:09:45.457Z,80.93
2018-06-19T02:10:45.462Z,80.64
2018-06-19T02:11:45.458Z,80.55
2018-06-19T02:12:45.467Z,80.35
2018-06-19T02:13:45.461Z,80.64
2018-06-19T02:14:45.462Z,80.55
2018-06-19T02:15:45.464Z,80.55
2018-06-19T02:16:45.464Z,79.97
2018-06-19T02:17:45.468Z,80.74
2018-06-19T02:18:45.466Z,80.55
2018-06-19T02:19:45.468Z,80.55
2018-06-19T02:20:45.471Z,80.45
2018-06-19T02:21:45.470Z,80.74
2018-06-19T02:22:45.471Z,80.74
2018-06-19T02:23:45.472Z,80.64
2018-06-19T02:24:45.473Z,80.83
2018-06-19T02:25:45.474Z,80.83
2018-06-19T02:26:45.476Z,80.83
2018-06-19T02:27:45.477Z,81.51
2018-06-19T02:28:45.481Z,80.83
2018-06-19T02:29:45.480Z,80.83
2018-06-19T02:30:45.480Z,80.83
2018-06-19T02:31:45.483Z,80.83
2018-06-19T02:32:45.483Z,80.74
2018-06-19T02:33:45.492Z,80.93
2018-06-19T02:34:45.487Z,80.83
2018-06-19T02:35:45.487Z,80.74
2018-06-19T02:36:45.490Z,80.64
2018-06-19T02:37:45.488Z,80.83
2018-06-19T02:38:45.490Z,80.64
2018-06-19T02:39:45.493Z,81.02
2018-06-19T02:40:45.494Z,80.83
2018-06-19T02:41:45.496Z,81.12
2018-06-19T02:42:45.496Z,81.22
2018-06-19T02:43:45.503Z,81.02
2018-06-19T02:44:45.499Z,81.02
2018-06-19T02:45:45.500Z,81.22
2018-06-19T02:46:45.501Z,81.12
2018-06-19T02:47:45.502Z,80.26
2018-06-19T02:48:45.503Z,81.22
2018-06-19T02:49:45.504Z,80.26
2018-06-19T02:50:45.508Z,80.26
2018-06-19T02:51:45.511Z,80.74
2018-06-19T02:52:45.510Z,80.93
2018-06-19T02:53:45.518Z,80.93
2018-06-19T02:54:45.511Z,80.64
2018-06-19T02:55:45.523Z,80.93
2018-06-19T02:56:45.513Z,81.22
2018-06-19T02:57:45.516Z,81.31
2018-06-19T02:58:45.520Z,81.02
2018-06-19T02:59:45.517Z,81.02
2018-06-19T03:00:45.519Z,81.41
2018-06-19T03:01:45.519Z,81.41
2018-06-19T03:02:45.520Z,81.41
2018-06-19T03:03:45.524Z,81.41
2018-06-19T03:04:45.524Z,81.22
2018-06-19T03:05:45.529Z,81.31
2018-06-19T03:06:45.532Z,81.51
2018-06-19T03:07:45.530Z,81.51
2018-06-19T03:08:45.528Z,81.12
2018-06-19T03:09:45.529Z,81.31
2018-06-19T03:10:45.533Z,81.31
2018-06-19T03:11:45.532Z,80.93
2018-06-19T03:12:45.537Z,81.22
2018-06-19T03:13:45.534Z,81.22
2018-06-19T03:14:45.539Z,81.22
2018-06-19T03:15:45.541Z,81.22
2018-06-19T03:16:45.542Z,81.22
2018-06-19T03:17:45.545Z,81.31
2018-06-19T03:18:45.545Z,81.41
2018-06-19T03:19:45.557Z,81.12
2018-06-19T03:20:45.550Z,81.22
2018-06-19T03:21:45.550Z,81.41
2018-06-19T03:22:45.548Z,81.31
2018-06-19T03:23:45.547Z,81.22
2018-06-19T03:24:45.565Z,81.22
2018-06-19T03:25:45.554Z,81.41
2018-06-19T03:26:45.554Z,81.41
2018-06-19T03:27:45.553Z,81.41
2018-06-19T03:28:45.552Z,81.22
2018-06-19T03:29:45.557Z,81.31
2018-06-19T03:30:45.555Z,81.41
2018-06-19T03:31:45.558Z,81.31
2018-06-19T03:32:45.557Z,81.31
2018-06-19T03:33:45.558Z,81.41
2018-06-19T03:34:45.558Z,81.22
2018-06-19T03:35:45.561Z,81.22
2018-06-19T03:36:45.566Z,81.31
2018-06-19T03:37:45.563Z,81.31
2018-06-19T03:38:45.564Z,81.64
2018-06-19T03:39:45.568Z,81.31
2018-06-19T03:40:45.566Z,81.41
2018-06-19T03:41:45.567Z,81.12
2018-06-19T03:42:45.573Z,80.64
2018-06-19T03:43:45.571Z,80.93
2018-06-19T03:44:45.574Z,80.64
2018-06-19T03:45:45.574Z,80.87
2018-06-19T03:46:45.574Z,80.87
2018-06-19T03:47:45.577Z,80.83
2018-06-19T03:48:45.582Z,80.87
2018-06-19T03:49:45.578Z,81.07
2018-06-19T03:50:45.578Z,80.30
2018-06-19T03:51:45.583Z,80.30
2018-06-19T03:52:45.580Z,80.58
2018-06-19T03:53:45.589Z,80.49
2018-06-19T03:54:45.583Z,80.40
2018-06-19T03:55:45.585Z,80.49
2018-06-19T03:56:45.586Z,80.40
2018-06-19T03:57:45.589Z,80.58
2018-06-19T03:58:45.605Z,80.97
2018-06-19T03:59:45.592Z,80.49
2018-06-19T04:00:45.597Z,80.58
2018-06-19T04:01:45.592Z,80.78
2018-06-19T04:02:45.594Z,80.49
2018-06-19T04:03:45.596Z,80.20
2018-06-19T04:04:45.596Z,80.01
2018-06-19T04:05:45.598Z,80.11
2018-06-19T04:06:45.600Z,80.11
2018-06-19T04:07:45.601Z,79.82
2018-06-19T04:08:45.601Z,80.30
2018-06-19T04:09:45.604Z,80.01
2018-06-19T04:10:45.606Z,79.82
2018-06-19T04:11:45.606Z,80.05
2018-06-19T04:12:45.610Z,79.47
2018-06-19T04:13:45.611Z,79.28
2018-06-19T04:14:45.612Z,79.67
2018-06-19T04:15:45.613Z,79.47
2018-06-19T04:16:45.614Z,79.57
2018-06-19T04:17:45.615Z,79.47
2018-06-19T04:18:45.617Z,79.38
2018-06-19T04:19:45.618Z,79.67
2018-06-19T04:20:45.620Z,79.38
2018-06-19T04:21:45.625Z,79.09
2018-06-19T04:22:45.627Z,79.28
2018-06-19T04:23:45.625Z,79.67
2018-06-19T04:24:45.629Z,78.90
2018-06-19T04:25:45.628Z,79.38
2018-06-19T04:26:45.630Z,79.28
2018-06-19T04:27:45.634Z,79.19
2018-06-19T04:28:45.632Z,79.19
2018-06-19T04:29:45.637Z,79.19
2018-06-19T04:30:45.636Z,79.19
2018-06-19T04:31:45.639Z,78.61
2018-06-19T04:32:45.640Z,78.52
2018-06-19T04:33:45.645Z,78.55
2018-06-19T04:34:45.644Z,78.45
2018-06-19T04:35:45.645Z,78.65
2018-06-19T04:36:45.649Z,78.65
2018-06-19T04:37:45.651Z,78.36
2018-06-19T04:38:45.654Z,78.27
2018-06-19T04:39:45.652Z,78.36
2018-06-19T04:40:45.662Z,78.17
2018-06-19T04:41:45.657Z,78.27
2018-06-19T04:42:45.657Z,78.36
2018-06-19T04:43:45.663Z,78.55
2018-06-19T04:44:45.661Z,78.17
2018-06-19T04:45:45.664Z,78.17
2018-06-19T04:46:45.665Z,78.08
2018-06-19T04:47:45.669Z,77.98
2018-06-19T04:48:45.669Z,77.69
2018-06-19T04:49:45.722Z,77.88
2018-06-19T04:50:45.676Z,77.01
2018-06-19T04:51:45.678Z,77.15
2018-06-19T04:52:45.677Z,77.25
2018-06-19T04:53:45.682Z,77.15
2018-06-19T04:54:45.684Z,77.15
2018-06-19T04:55:45.686Z,77.25
2018-06-19T04:56:45.686Z,77.34
2018-06-19T04:57:45.689Z,77.25
2018-06-19T04:58:45.691Z,77.25
2018-06-19T04:59:45.694Z,77.15
2018-06-19T05:00:45.696Z,76.86
2018-06-19T05:01:45.697Z,76.86
2018-06-19T05:02:45.700Z,76.23
2018-06-19T05:03:45.763Z,76.81
2018-06-19T05:04:45.707Z,76.42
2018-06-19T05:05:45.710Z,76.32
2018-06-19T05:06:45.711Z,76.81
2018-06-19T05:07:45.722Z,76.04
2018-06-19T05:08:45.713Z,76.04
2018-06-19T05:09:45.716Z,75.84
2018-06-19T05:10:45.718Z,75.84
2018-06-19T05:11:45.720Z,75.94
2018-06-19T05:12:45.769Z,76.14
2018-06-19T05:13:45.727Z,75.65
2018-06-19T05:14:45.728Z,75.65
2018-06-19T05:15:45.731Z,75.65
2018-06-19T05:16:45.732Z,74.69
2018-06-19T05:17:45.737Z,75.37
2018-06-19T05:18:45.739Z,75.46
2018-06-19T05:19:45.750Z,75.69
2018-06-19T05:20:45.748Z,75.11
2018-06-19T05:21:45.744Z,75.31
2018-06-19T05:22:45.747Z,74.82
2018-06-19T05:23:45.752Z,74.92
2018-06-19T05:24:45.753Z,74.63
2018-06-19T05:25:45.760Z,74.54
2018-06-19T05:26:45.761Z,74.54
2018-06-19T05:27:45.773Z,74.05
2018-06-19T05:28:45.768Z,74.05
2018-06-19T05:29:45.764Z,73.80
2018-06-19T05:30:45.768Z,73.51
2018-06-19T05:31:45.775Z,73.57
2018-06-19T05:32:45.773Z,73.99
2018-06-19T05:33:45.787Z,73.90
2018-06-19T05:34:45.780Z,74.09
2018-06-19T05:35:45.782Z,73.71
2018-06-19T05:36:45.784Z,73.22
2018-06-19T05:37:45.790Z,72.65
2018-06-19T05:38:45.790Z,72.68
2018-06-19T05:39:45.794Z,72.88
2018-06-19T05:40:45.795Z,72.88
2018-06-19T05:41:45.808Z,72.39
2018-06-19T05:42:45.807Z,72.30
2018-06-19T05:43:45.804Z,72.39
2018-06-19T05:44:45.816Z,72.97
2018-06-19T05:45:45.813Z,72.97
2018-06-19T05:46:45.813Z,72.97
2018-06-19T05:47:45.819Z,72.78
2018-06-19T05:48:45.818Z,72.88
2018-06-19T05:49:45.829Z,72.59
2018-06-19T05:50:45.825Z,72.68
2018-06-19T05:51:45.833Z,72.68
2018-06-19T05:52:45.839Z,72.97
2018-06-19T05:53:45.868Z,73.07
2018-06-19T05:54:45.837Z,73.16
2018-06-19T05:55:45.840Z,72.97
2018-06-19T05:56:45.842Z,72.97
2018-06-19T05:57:45.846Z,73.26
2018-06-19T05:58:45.851Z,73.46
2018-06-19T05:59:45.854Z,73.55
2018-06-19T06:00:45.856Z,74.36
2018-06-19T06:01:45.860Z,74.13
2018-06-19T06:02:45.869Z,74.65
2018-06-19T06:03:45.865Z,74.74
2018-06-19T06:04:45.868Z,75.23
2018-06-19T06:05:46.012Z,75.03
2018-06-19T06:06:45.874Z,74.74
2018-06-19T06:07:45.878Z,74.68
2018-06-19T06:08:45.879Z,74.20
2018-06-19T06:09:47.021Z,74.20
2018-06-19T06:10:45.951Z,73.47
2018-06-19T06:11:45.924Z,72.73
2018-06-19T06:12:45.911Z,71.86
2018-06-19T06:13:45.899Z,71.48
2018-06-19T06:14:46.104Z,71.28
2018-06-19T06:15:45.905Z,71.09
2018-06-19T06:16:46.041Z,70.94
2018-06-19T06:17:45.943Z,70.00
2018-06-19T06:18:46.715Z,69.20
2018-06-19T06:19:45.921Z,69.29
2018-06-19T06:20:45.923Z,69.10
2018-06-19T06:21:45.964Z,69.49
2018-06-19T06:22:45.939Z,69.20
2018-06-19T06:23:45.936Z,69.29
2018-06-19T06:24:45.952Z,68.52
2018-06-19T06:25:45.952Z,68.52
2018-06-19T06:26:46.018Z,67.94
2018-06-19T06:27:45.961Z,67.55
2018-06-19T06:28:46.042Z,67.85
2018-06-19T06:29:45.959Z,68.13
2018-06-19T06:30:45.968Z,67.65
2018-06-19T06:31:46.039Z,67.55
2018-06-19T06:32:45.994Z,67.85
2018-06-19T06:33:45.975Z,67.46
2018-06-19T06:34:46.017Z,67.75
2018-06-19T06:35:46.000Z,67.75
2018-06-19T06:36:46.006Z,67.59
2018-06-19T06:37:45.992Z,67.40
2018-06-19T06:38:45.996Z,67.59
2018-06-19T06:39:45.999Z,66.72
2018-06-19T06:40:46.004Z,66.43
2018-06-19T06:41:46.006Z,67.01
2018-06-19T06:42:46.012Z,66.43
2018-06-19T06:43:46.022Z,66.63
2018-06-19T06:44:46.044Z,66.78
2018-06-19T06:45:46.144Z,66.33
2018-06-19T06:46:46.029Z,66.53
2018-06-19T06:47:46.036Z,66.40
2018-06-19T06:48:46.039Z,65.95
2018-06-19T06:49:46.040Z,66.53
2018-06-19T06:50:46.045Z,66.72
2018-06-19T06:51:46.050Z,66.72
2018-06-19T06:52:46.053Z,66.63
2018-06-19T06:53:46.060Z,65.95
2018-06-19T06:54:46.075Z,65.95
2018-06-19T06:55:46.066Z,66.33
2018-06-19T06:56:46.070Z,65.56
2018-06-19T06:57:46.075Z,65.95
2018-06-19T06:58:46.080Z,65.56
2018-06-19T06:59:46.109Z,65.75
2018-06-19T07:00:46.095Z,65.47
2018-06-19T07:01:46.096Z,65.85
2018-06-19T07:02:46.108Z,66.14
2018-06-19T07:03:46.104Z,66.27
2018-06-19T07:04:46.127Z,65.75
2018-06-19T07:05:46.118Z,65.75
2018-06-19T07:06:46.115Z,65.85
2018-06-19T07:07:46.187Z,65.85
2018-06-19T07:08:46.124Z,65.75
2018-06-19T07:09:46.248Z,65.37
2018-06-19T07:10:46.133Z,66.05
2018-06-19T07:11:46.137Z,66.33
2018-06-19T07:12:46.139Z,66.14
2018-06-19T07:13:46.159Z,65.56
2018-06-19T07:14:46.151Z,65.85
2018-06-19T07:15:46.323Z,66.11
2018-06-19T07:16:46.156Z,65.66
2018-06-19T07:17:46.188Z,65.85
2018-06-19T07:18:46.167Z,66.14
2018-06-19T07:19:46.176Z,66.24
2018-06-19T07:20:46.182Z,66.72
2018-06-19T07:21:46.180Z,66.43
2018-06-19T07:22:46.181Z,66.43
2018-06-19T07:23:46.188Z,66.63
2018-06-19T07:24:46.204Z,65.85
2018-06-19T07:25:46.197Z,65.56
2018-06-19T07:26:46.201Z,65.66
2018-06-19T07:27:47.180Z,65.75
2018-06-19T07:28:46.205Z,65.27
2018-06-19T07:29:46.211Z,65.08
2018-06-19T07:30:46.221Z,64.98
2018-06-19T07:31:46.400Z,65.08
2018-06-19T07:32:46.266Z,65.08
2018-06-19T07:33:46.232Z,64.79
2018-06-19T07:34:46.231Z,64.98
2018-06-19T07:35:46.238Z,65.20
2018-06-19T07:36:46.274Z,65.47
2018-06-19T07:37:46.266Z,64.59
2018-06-19T07:38:46.247Z,64.79
2018-06-19T07:39:46.252Z,64.40
2018-06-19T07:40:46.255Z,64.63
2018-06-19T07:41:46.265Z,64.11
2018-06-19T07:42:46.266Z,64.11
2018-06-19T07:43:46.318Z,63.95
2018-06-19T07:44:46.273Z,64.24
2018-06-19T07:45:46.277Z,64.01
2018-06-19T07:46:46.285Z,63.82
2018-06-19T07:47:46.287Z,64.53
2018-06-19T07:48:46.292Z,64.82
2018-06-19T07:49:46.335Z,64.53
2018-06-19T07:50:46.299Z,63.85
2018-06-19T07:51:46.310Z,64.14
2018-06-19T07:52:46.306Z,63.66
2018-06-19T07:53:46.310Z,63.66
2018-06-19T07:54:46.339Z,63.31
2018-06-19T07:55:46.322Z,63.02
2018-06-19T07:56:46.325Z,63.21
2018-06-19T07:57:46.357Z,63.21
2018-06-19T07:58:46.332Z,62.63
2018-06-19T07:59:46.337Z,62.53
2018-06-19T08:00:46.341Z,62.44
2018-06-19T08:01:46.345Z,62.34
2018-06-19T08:02:46.352Z,62.82
2018-06-19T08:03:46.362Z,63.02
2018-06-19T08:04:47.186Z,61.95
2018-06-19T08:05:46.366Z,62.92
2018-06-19T08:06:46.383Z,62.44
2018-06-19T08:07:46.381Z,61.95
2018-06-19T08:08:46.385Z,61.37
2018-06-19T08:09:46.392Z,61.08
2018-06-19T08:10:46.385Z,61.18
2018-06-19T08:11:46.444Z,61.21
2018-06-19T08:12:46.395Z,60.82
2018-06-19T08:13:46.400Z,60.92
2018-06-19T08:14:46.411Z,60.92
2018-06-19T08:15:46.410Z,60.24
2018-06-19T08:16:46.418Z,59.95
2018-06-19T08:17:46.418Z,59.95
2018-06-19T08:18:46.441Z,59.95
2018-06-19T08:19:46.428Z,59.95
2018-06-19T08:20:46.443Z,59.89
2018-06-19T08:21:46.441Z,59.69
2018-06-19T08:22:46.503Z,58.63
2018-06-19T08:23:46.466Z,58.34
2018-06-19T08:24:46.450Z,58.14
2018-06-19T08:25:46.457Z,58.92
2018-06-19T08:26:46.460Z,58.72
2018-06-19T08:27:46.466Z,59.18
2018-06-19T08:28:46.470Z,59.18
2018-06-19T08:29:46.476Z,58.92
2018-06-19T08:30:46.480Z,57.53
2018-06-19T08:31:46.485Z,55.54
2018-06-19T08:32:46.490Z,52.81
2018-06-19T08:33:46.527Z,50.99
2018-06-19T08:34:46.501Z,51.16
2018-06-19T08:35:46.509Z,50.87
2018-06-19T08:36:46.512Z,52.40
2018-06-19T08:37:46.520Z,52.59
2018-06-19T08:38:46.521Z,49.71
2018-06-19T08:39:46.528Z,47.05
2018-06-19T08:40:46.535Z,44.38
2018-06-19T08:41:46.594Z,42.84
2018-06-19T08:42:46.545Z,40.93
2018-06-19T08:43:46.551Z,39.41
2018-06-19T08:44:46.566Z,38.84
2018-06-19T08:45:46.570Z,37.40
2018-06-19T08:46:46.570Z,36.65
2018-06-19T08:47:46.597Z,36.07
2018-06-19T08:48:46.606Z,35.61
2018-06-19T08:49:46.601Z,35.53
2018-06-19T08:50:46.608Z,34.36
2018-06-19T08:51:46.608Z,34.16
2018-06-19T08:52:46.632Z,33.87
2018-06-19T08:53:46.876Z,33.39
2018-06-19T08:54:46.632Z,33.10
2018-06-19T08:55:46.639Z,33.29
2018-06-19T08:56:46.645Z,32.51
2018-06-19T08:57:46.658Z,31.74
2018-06-19T08:58:46.662Z,31.35
2018-06-19T08:59:46.671Z,30.67
2018-06-19T09:00:46.678Z,30.78
2018-06-19T09:01:46.690Z,30.11
2018-06-19T09:02:46.698Z,29.24
2018-06-19T09:03:46.717Z,28.16
2018-06-19T09:04:46.715Z,27.59
2018-06-19T09:05:46.723Z,27.78
2018-06-19T09:06:46.736Z,27.78
2018-06-19T09:07:46.743Z,27.12
2018-06-19T09:08:46.752Z,26.82
2018-06-19T09:09:46.764Z,26.36
2018-06-19T09:10:46.772Z,26.08
2018-06-19T09:11:46.781Z,25.88
2018-06-19T09:12:46.793Z,25.20
2018-06-19T09:13:46.802Z,25.01
2018-06-19T09:14:46.812Z,24.13
2018-06-19T09:15:46.821Z,24.04
2018-06-19T09:16:46.833Z,24.24
2018-06-19T09:17:46.843Z,24.23
2018-06-19T09:18:46.859Z,23.75
2018-06-19T09:19:46.866Z,23.27
2018-06-19T09:20:46.877Z,23.08
2018-06-19T09:21:46.892Z,22.70
2018-06-19T09:22:46.898Z,22.22
2018-06-19T09:23:46.928Z,21.94
2018-06-19T09:24:46.921Z,21.17
2018-06-19T09:25:46.933Z,20.78
2018-06-19T09:26:46.945Z,19.60
2018-06-19T09:27:46.958Z,20.30
2018-06-19T09:28:46.968Z,19.71
2018-06-19T09:29:46.980Z,19.43
2018-06-19T09:30:46.995Z,19.52
2018-06-19T09:31:47.017Z,20.59
2018-06-19T09:32:47.026Z,20.67
2018-06-19T09:33:47.032Z,21.73
2018-06-19T09:34:47.046Z,22.19
2018-06-19T09:35:47.064Z,22.89
2018-06-19T09:36:47.076Z,22.70
2018-06-19T09:37:47.083Z,22.22
2018-06-19T09:38:47.103Z,21.64
2018-06-19T09:39:47.113Z,21.36
2018-06-19T09:40:47.123Z,21.18
2018-06-19T09:41:47.139Z,20.59
2018-06-19T09:42:47.151Z,20.68
2018-06-19T09:43:47.220Z,20.60
2018-06-19T09:44:47.179Z,20.59
2018-06-19T09:45:47.191Z,21.34
2018-06-19T09:46:47.207Z,22.86
2018-06-19T09:47:47.220Z,25.28
2018-06-19T09:48:47.242Z,25.31
2018-06-19T09:49:47.245Z,24.81
2018-06-19T09:50:47.257Z,24.43
2018-06-19T09:51:47.271Z,24.23
2018-06-19T09:52:47.290Z,23.87
2018-06-19T09:53:48.375Z,22.82
2018-06-19T09:54:47.322Z,22.61
2018-06-19T09:55:47.325Z,22.97
2018-06-19T09:56:47.343Z,24.43
2018-06-19T09:57:47.397Z,25.31
2018-06-19T09:58:47.360Z,25.77
2018-06-19T09:59:47.380Z,26.54
2018-06-19T10:00:47.383Z,26.56
2018-06-19T10:01:47.428Z,25.60
2018-06-19T10:02:47.410Z,24.15
2018-06-19T10:03:47.420Z,23.77
2018-06-19T10:04:47.433Z,23.95
2018-06-19T10:05:47.474Z,25.01
2018-06-19T10:06:47.455Z,24.92
2018-06-19T10:07:47.466Z,25.12
2018-06-19T10:08:47.483Z,25.21
2018-06-19T10:09:47.493Z,25.77
2018-06-19T10:10:47.500Z,25.87
2018-06-19T10:11:47.519Z,25.32
2018-06-19T10:12:47.542Z,24.55
2018-06-19T10:13:47.589Z,23.29
2018-06-19T10:14:47.551Z,23.00
2018-06-19T10:15:47.561Z,22.91
2018-06-19T10:16:47.577Z,24.33
2018-06-19T10:17:47.598Z,25.77
2018-06-19T10:18:47.662Z,27.11
2018-06-19T10:19:47.643Z,27.98
2018-06-19T10:20:47.633Z,28.26
2018-06-19T10:21:47.632Z,28.93
2018-06-19T10:22:47.645Z,29.50
2018-06-19T10:23:47.667Z,29.50
2018-06-19T10:24:47.668Z,29.50
2018-06-19T10:25:47.681Z,29.50
2018-06-19T10:26:47.690Z,30.37
2018-06-19T10:27:47.699Z,30.85
2018-06-19T10:28:47.709Z,30.74
2018-06-19T10:29:47.723Z,31.52
2018-06-19T10:30:47.739Z,32.20
2018-06-19T10:31:47.768Z,31.80
2018-06-19T10:32:47.749Z,31.99
2018-06-19T10:33:47.764Z,31.70
2018-06-19T10:34:47.772Z,32.48
2018-06-19T10:35:47.784Z,32.56
2018-06-19T10:36:47.831Z,33.15
2018-06-19T10:37:47.799Z,33.53
2018-06-19T10:38:47.816Z,33.92
2018-06-19T10:39:47.818Z,34.39
2018-06-19T10:40:47.827Z,34.86
2018-06-19T10:41:47.838Z,35.35
2018-06-19T10:42:47.846Z,35.64
2018-06-19T10:43:47.856Z,35.35
2018-06-19T10:44:47.865Z,35.25
2018-06-19T10:45:47.875Z,35.64
2018-06-19T10:46:47.883Z,35.55
2018-06-19T10:47:47.897Z,35.82
2018-06-19T10:48:47.899Z,36.21
2018-06-19T10:49:47.907Z,36.21
2018-06-19T10:50:47.918Z,36.52
2018-06-19T10:51:47.927Z,36.21
2018-06-19T10:52:47.982Z,36.51
2018-06-19T10:53:47.959Z,36.52
2018-06-19T10:54:47.950Z,36.41
2018-06-19T10:55:47.973Z,36.41
2018-06-19T10:56:48.030Z,36.99
2018-06-19T10:57:47.978Z,37.19
2018-06-19T10:58:47.984Z,37.27
2018-06-19T10:59:47.996Z,37.65
2018-06-19T11:00:48.021Z,37.73
2018-06-19T11:01:48.013Z,37.93
2018-06-19T11:02:48.018Z,38.12
2018-06-19T11:03:48.025Z,38.02
2018-06-19T11:04:48.033Z,38.90
2018-06-19T11:05:48.040Z,38.79
2018-06-19T11:06:48.050Z,38.89
2018-06-19T11:07:48.057Z,38.79
2018-06-19T11:08:48.066Z,38.79
2018-06-19T11:09:48.071Z,38.79
2018-06-19T11:10:48.105Z,38.49
2018-06-19T11:11:48.089Z,38.61
2018-06-19T11:12:48.096Z,38.71
2018-06-19T11:13:48.111Z,38.79
2018-06-19T11:14:48.113Z,38.79
2018-06-19T11:15:48.122Z,38.79
2018-06-19T11:16:48.127Z,38.69
2018-06-19T11:17:48.162Z,38.59
2018-06-19T11:18:48.145Z,38.89
2018-06-19T11:19:48.167Z,39.45
2018-06-19T11:20:48.173Z,39.62
2018-06-19T11:21:48.167Z,40.41
2018-06-19T11:22:48.174Z,40.89
2018-06-19T11:23:48.199Z,40.11
2018-06-19T11:24:48.193Z,40.50
2018-06-19T11:25:48.301Z,40.99
2018-06-19T11:26:48.204Z,40.62
2018-06-19T11:27:48.217Z,40.60
2018-06-19T11:28:48.218Z,40.70
2018-06-19T11:29:48.227Z,40.99
2018-06-19T11:30:48.237Z,40.99
2018-06-19T11:31:48.241Z,41.19
2018-06-19T11:32:48.248Z,41.19
2018-06-19T11:33:48.256Z,41.19
2018-06-19T11:34:48.263Z,41.48
2018-06-19T11:35:48.274Z,41.09
2018-06-19T11:36:48.356Z,41.48
2018-06-19T11:37:48.322Z,41.48
2018-06-19T11:38:48.313Z,41.67
2018-06-19T11:39:48.337Z,41.28
2018-06-19T11:40:48.307Z,41.38
2018-06-19T11:41:48.315Z,41.36
2018-06-19T11:42:48.348Z,42.11
2018-06-19T11:43:48.333Z,42.31
2018-06-19T11:44:48.409Z,42.41
2018-06-19T11:45:48.344Z,42.50
2018-06-19T11:46:48.353Z,42.80
2018-06-19T11:47:48.408Z,43.29
2018-06-19T11:48:48.364Z,43.16
2018-06-19T11:49:48.418Z,43.46
2018-06-19T11:50:48.431Z,43.36
2018-06-19T11:51:48.411Z,43.26
2018-06-19T11:52:48.475Z,43.26
2018-06-19T11:53:48.432Z,43.36
2018-06-19T11:54:48.416Z,43.46
2018-06-19T11:55:48.478Z,43.16
2018-06-19T11:56:48.489Z,43.96
2018-06-19T11:57:48.428Z,44.04
2018-06-19T11:58:48.436Z,44.53
2018-06-19T11:59:48.443Z,44.62
2018-06-19T12:00:48.451Z,44.62
2018-06-19T12:01:48.504Z,43.75
2018-06-19T12:02:48.533Z,43.95
2018-06-19T12:03:48.474Z,44.16
2018-06-19T12:04:48.515Z,43.77
2018-06-19T12:05:48.578Z,44.26
2018-06-19T12:06:48.543Z,43.55
2018-06-19T12:07:48.501Z,44.33
2018-06-19T12:08:48.504Z,44.33
2018-06-19T12:09:48.552Z,44.31
2018-06-19T12:10:48.518Z,45.50
2018-06-19T12:11:48.527Z,44.99
2018-06-19T12:12:48.538Z,44.92
2018-06-19T12:13:48.544Z,45.21
2018-06-19T12:14:48.547Z,44.72
2018-06-19T12:15:48.555Z,44.62
2018-06-19T12:16:48.557Z,44.82
2018-06-19T12:17:48.565Z,44.53
2018-06-19T12:18:48.572Z,45.21
2018-06-19T12:19:48.582Z,45.01
2018-06-19T12:20:48.586Z,44.82
2018-06-19T12:21:48.593Z,44.74
2018-06-19T12:22:48.606Z,44.55
2018-06-19T12:23:48.668Z,44.16
2018-06-19T12:24:48.611Z,44.65
2018-06-19T12:25:48.637Z,43.79
2018-06-19T12:26:48.630Z,43.40
2018-06-19T12:27:49.242Z,43.40
2018-06-19T12:28:48.644Z,43.40
2018-06-19T12:29:48.647Z,43.50
2018-06-19T12:30:48.653Z,44.06
2018-06-19T12:31:48.665Z,44.06
2018-06-19T12:32:48.670Z,43.30
2018-06-19T12:33:48.677Z,43.40
2018-06-19T12:34:48.684Z,42.91
2018-06-19T12:35:48.691Z,42.53
2018-06-19T12:36:48.697Z,42.43
2018-06-19T12:37:48.704Z,42.72
2018-06-19T12:38:48.715Z,43.21
2018-06-19T12:39:48.746Z,43.50
2018-06-19T12:40:48.761Z,43.70
2018-06-19T12:41:48.740Z,44.55
2018-06-19T12:42:48.743Z,44.16
2018-06-19T12:43:48.748Z,44.09
2018-06-19T12:44:48.794Z,44.09
2018-06-19T12:45:48.771Z,43.79
2018-06-19T12:46:48.794Z,44.09
2018-06-19T12:47:48.846Z,44.16
2018-06-19T12:48:48.779Z,44.16
2018-06-19T12:49:48.802Z,44.16
2018-06-19T12:50:48.795Z,44.16
2018-06-19T12:51:48.799Z,44.16
2018-06-19T12:52:48.827Z,44.09